الصفحة الرئيسية
METAR-TAF:

METAR-TAF

مطار :

ريسيفي, بيرنامبوكو, البرازيل

دائرة عرض: 08-08S, خط طول: 034-55W, ارتفاع: 19 متر

مراقبة الطقس الحالي

تاريخ ووقت الإصدار 19 دقيقة قبل الساعة 09:00UTC
ريح 12 عقدة من الجنوب الشرقي
درجة الحرارة 21°درجة مئوية
الرطوبة 94%
ضغط 1018 hPa
الرؤية: 8000 متر
غيوم متفرقة على ارتفاع 1500 قدم
غيوم مفككة على ارتفاع 2200 قدم
زخات من الأمطار الخفيفة

METAR: SBRF 170900Z 14012KT 8000 -SHRA SCT015 BKN022 21/20 Q1018

زمن: 06:19 (09:19 UTC)

توقعات

تاريخ ووقت الإصدار 7ساعات و 19 دقيقة قبل الساعة 02:00UTC
التوقعات صالحة من17 الساعة 06 UTC إلى 18 الساعة 06 UTC
ريح 4 عقدة من الجنوب/الجنوب الغربي
الرؤية: 8000 متر
غيوم متفرقة على ارتفاع 2000 قدم
أصبح
من 17 الساعة 10 UTC إلى 17 الساعة 12 UTC
ريح 12 عقدة من الجنوب/الجنوب الشرقي

TAF: SBRF 170200Z 1706/1806 20004KT 8000 SCT020 TN22/1708Z TX28/1715Z BECMG 1710/1712 15012KT RMK PEA

أرصاد الطقس والتوقعات من أكثر من 4000 مطار (تقارير الطقس للمطار METAR والتنبؤ بالطقس بالمطارTAF).

المحطات المتاحة هي النقط الصفراء والحمراء على الخريطة.

حرك المؤشر فوق النقطة لمعرفة اسم المحطة.

ثم انقر لمعرفة أرصاد وتوقعات الطقس.

لتغيير الخارطة: اضغط على الأزرار الخضراء مع رمز الصليب الأسود للتكبير. على الزر الأخضر مع شرطة للتصغير، أو على الأسهم الخضراء للخرائط المجاورة.


METAR-TAF: